createdAt,value
2019-02-11T07:21:02.280Z,5.67
2019-02-11T07:23:31.988Z,5.96
2019-02-11T07:26:01.694Z,6.20
2019-02-11T07:28:31.259Z,6.34
2019-02-11T07:31:01.573Z,6.69
2019-02-11T07:33:33.791Z,7.04
2019-02-11T07:36:03.277Z,7.37
2019-02-11T07:38:32.806Z,7.39
2019-02-11T07:41:02.407Z,7.52
2019-02-11T07:43:40.289Z,7.46
2019-02-11T07:46:17.606Z,7.33
2019-02-11T07:48:47.192Z,7.37
2019-02-11T07:51:16.889Z,7.48
2019-02-11T07:53:46.712Z,7.57
2019-02-11T07:56:16.420Z,7.72
2019-02-11T07:58:46.127Z,7.63
2019-02-11T08:01:15.629Z,7.94
2019-02-11T08:03:45.327Z,8.15
2019-02-11T08:06:15.045Z,8.42
2019-02-11T08:08:44.885Z,8.56
2019-02-11T08:11:14.579Z,8.43
2019-02-11T08:13:44.051Z,8.50
2019-02-11T08:16:13.680Z,8.49
2019-02-11T08:18:43.449Z,8.50
2019-02-11T08:21:13.211Z,8.55
2019-02-11T08:23:42.807Z,8.62
2019-02-11T08:26:12.530Z,8.86
2019-02-11T08:28:42.386Z,8.95
2019-02-11T08:31:12.354Z,8.92
2019-02-11T08:33:41.947Z,9.02
2019-02-11T08:36:11.729Z,9.13
2019-02-11T08:38:41.191Z,9.27
2019-02-11T08:41:10.882Z,9.43
2019-02-11T08:43:40.526Z,9.60
2019-02-11T08:46:10.395Z,9.81
2019-02-11T08:48:39.988Z,9.95
2019-02-11T08:51:09.413Z,10.10
2019-02-11T08:53:39.187Z,10.21
2019-02-11T08:56:08.664Z,10.40
2019-02-11T08:58:38.331Z,10.42
2019-02-11T09:01:08.247Z,10.48
2019-02-11T09:03:38.162Z,10.71
2019-02-11T09:06:07.869Z,10.95
2019-02-11T09:08:37.505Z,11.26
2019-02-11T09:11:07.139Z,11.56
2019-02-11T09:13:36.954Z,11.76
2019-02-11T09:16:06.922Z,11.79
2019-02-11T09:18:36.577Z,12.15
2019-02-11T09:21:06.258Z,12.64
2019-02-11T09:23:35.659Z,13.29
2019-02-11T09:26:05.492Z,13.80
2019-02-11T09:28:34.975Z,13.42
2019-02-11T09:31:04.901Z,13.75
2019-02-11T09:33:34.457Z,14.00
2019-02-11T09:36:03.883Z,14.80
2019-02-11T09:38:33.642Z,15.71
2019-02-11T09:41:03.321Z,16.02
2019-02-11T09:43:32.727Z,16.03
2019-02-11T09:46:03.978Z,16.26
2019-02-11T09:48:33.693Z,16.74
2019-02-11T09:51:04.507Z,16.54
2019-02-11T09:53:34.171Z,16.87
2019-02-11T09:56:04.032Z,17.07
2019-02-11T09:58:33.848Z,17.28
2019-02-11T10:01:03.827Z,18.00
2019-02-11T10:03:33.211Z,18.36
2019-02-11T10:06:02.942Z,18.51
2019-02-11T10:08:32.590Z,18.34
2019-02-11T10:11:02.723Z,18.25
2019-02-11T10:13:32.349Z,18.84
2019-02-11T10:16:01.812Z,18.71
2019-02-11T10:18:31.630Z,18.82
2019-02-11T10:21:03.814Z,18.56
2019-02-11T10:23:33.452Z,18.39
2019-02-11T10:26:03.218Z,18.47
2019-02-11T10:28:33.003Z,18.43
2019-02-11T10:31:02.767Z,18.80
2019-02-11T10:33:32.167Z,19.09
2019-02-11T10:36:01.894Z,19.04
2019-02-11T10:38:36.602Z,18.23
2019-02-11T10:41:02.956Z,17.88
2019-02-11T10:43:32.695Z,17.38
2019-02-11T10:46:02.296Z,16.91
2019-02-11T10:48:31.807Z,17.08
2019-02-11T10:51:01.373Z,17.27
2019-02-11T10:53:30.861Z,18.17
2019-02-11T10:56:00.703Z,19.06
2019-02-11T10:58:30.365Z,19.55
2019-02-11T11:00:59.776Z,19.52
2019-02-11T11:03:29.559Z,20.15
2019-02-11T11:05:59.432Z,21.10
2019-02-11T11:08:29.031Z,21.89
2019-02-11T11:10:58.737Z,22.21
2019-02-11T11:13:28.572Z,22.14
2019-02-11T11:15:58.271Z,22.77
2019-02-11T11:18:27.888Z,23.26
2019-02-11T11:20:57.367Z,23.87
2019-02-11T11:23:26.888Z,25.16
2019-02-11T11:25:56.499Z,25.46
2019-02-11T11:28:26.216Z,24.76
2019-02-11T11:30:55.726Z,25.74
2019-02-11T11:33:25.144Z,25.94
2019-02-11T11:35:54.575Z,26.53
2019-02-11T11:38:24.063Z,27.50
2019-02-11T11:40:53.811Z,28.92
2019-02-11T11:43:23.430Z,28.82
2019-02-11T11:45:52.831Z,28.22
2019-02-11T11:48:22.369Z,26.89
2019-02-11T11:50:52.146Z,26.39
2019-02-11T11:53:21.541Z,25.16
2019-02-11T11:55:51.269Z,23.46
2019-02-11T11:58:20.854Z,23.06
2019-02-11T12:00:50.508Z,23.51
2019-02-11T12:03:20.429Z,23.61
2019-02-11T12:05:50.325Z,23.91
2019-02-11T12:08:19.709Z,24.04
2019-02-11T12:10:49.421Z,23.85
2019-02-11T12:13:23.045Z,23.79
2019-02-11T12:15:50.788Z,22.78
2019-02-11T12:18:20.555Z,21.94
2019-02-11T12:20:50.181Z,20.84
2019-02-11T12:23:20.112Z,19.05
2019-02-11T12:25:49.840Z,18.38
2019-02-11T12:28:19.215Z,17.38
2019-02-11T12:30:53.341Z,16.91
2019-02-11T12:33:20.545Z,16.39
2019-02-11T12:35:50.407Z,15.87
2019-02-11T12:38:20.203Z,15.20
2019-02-11T12:40:49.745Z,14.65
2019-02-11T12:43:19.316Z,14.50
2019-02-11T12:45:49.109Z,13.77
2019-02-11T12:48:18.929Z,13.74
2019-02-11T12:50:48.415Z,13.60
2019-02-11T12:53:18.083Z,13.59
2019-02-11T12:55:47.507Z,13.48
2019-02-11T12:58:17.379Z,13.44
2019-02-11T13:00:47.085Z,13.35
2019-02-11T13:03:16.682Z,13.25
2019-02-11T13:05:46.755Z,13.27
2019-02-11T13:08:17.237Z,13.13
2019-02-11T13:10:46.700Z,12.68
2019-02-11T13:13:16.256Z,12.66
2019-02-11T13:16:00.211Z,12.64
2019-02-11T13:18:17.297Z,12.49
2019-02-11T13:20:46.899Z,12.55
2019-02-11T13:23:16.584Z,12.21
2019-02-11T13:25:46.249Z,11.95
2019-02-11T13:28:15.643Z,12.13
2019-02-11T13:30:45.060Z,12.10
2019-02-11T13:33:14.998Z,12.14
2019-02-11T13:35:44.877Z,12.16
2019-02-11T13:38:14.441Z,12.07
2019-02-11T13:40:43.945Z,12.04
2019-02-11T13:43:13.736Z,11.99
2019-02-11T13:45:43.567Z,11.92
2019-02-11T13:48:13.309Z,11.89
2019-02-11T13:50:43.313Z,11.82
2019-02-11T13:53:13.244Z,11.75
2019-02-11T13:55:44.144Z,11.73
2019-02-11T13:58:13.895Z,11.75
2019-02-11T14:00:49.439Z,11.82
2019-02-11T14:03:20.022Z,11.63
2019-02-11T14:05:48.408Z,11.68
2019-02-11T14:08:18.235Z,11.65
2019-02-11T14:10:47.724Z,11.82
2019-02-11T14:13:17.735Z,11.64
2019-02-11T14:15:47.539Z,11.57
2019-02-11T14:18:17.215Z,11.16
2019-02-11T14:20:49.989Z,11.15
2019-02-11T14:23:18.616Z,11.36
2019-02-11T14:25:48.078Z,11.26
2019-02-11T14:28:17.973Z,11.25
2019-02-11T14:30:47.753Z,10.87
2019-02-11T14:33:17.453Z,10.92
2019-02-11T14:35:47.179Z,11.06
2019-02-11T14:38:16.992Z,10.93
2019-02-11T14:40:46.638Z,10.95
2019-02-11T14:43:16.144Z,10.89
2019-02-11T14:45:46.004Z,10.79
2019-02-11T14:48:26.870Z,10.87
2019-02-11T14:50:47.027Z,10.69
2019-02-11T14:53:16.532Z,10.65
2019-02-11T14:55:46.270Z,10.81
2019-02-11T14:58:15.873Z,10.89
2019-02-11T15:00:45.290Z,10.73
2019-02-11T15:03:15.008Z,10.79
2019-02-11T15:05:44.560Z,10.89
2019-02-11T15:08:13.944Z,11.01
2019-02-11T15:10:43.817Z,10.89
2019-02-11T15:13:13.535Z,10.91
2019-02-11T15:15:43.319Z,10.66
2019-02-11T15:18:12.745Z,10.64
2019-02-11T15:20:42.512Z,10.44
2019-02-11T15:23:12.317Z,10.21
2019-02-11T15:25:42.081Z,10.02
2019-02-11T15:28:11.685Z,9.77
2019-02-11T15:30:41.421Z,9.48
2019-02-11T15:33:10.917Z,9.42
2019-02-11T15:35:40.511Z,9.35
2019-02-11T15:38:12.192Z,9.36
2019-02-11T15:40:41.858Z,9.16
2019-02-11T15:43:11.631Z,9.26
2019-02-11T15:45:41.472Z,9.16
2019-02-11T15:48:11.146Z,8.99
2019-02-11T15:50:40.857Z,8.80
2019-02-11T15:53:10.450Z,8.61
2019-02-11T15:55:40.084Z,8.34
2019-02-11T15:58:09.749Z,8.42
2019-02-11T16:00:41.901Z,8.48
2019-02-11T16:03:11.303Z,8.33
2019-02-11T16:05:49.206Z,8.10
2019-02-11T16:08:12.457Z,7.87
2019-02-11T16:10:41.960Z,7.95
2019-02-11T16:13:11.555Z,7.93
2019-02-11T16:15:40.959Z,8.06
2019-02-11T16:18:10.465Z,7.95
2019-02-11T16:20:39.966Z,7.94
2019-02-11T16:23:09.678Z,7.92
2019-02-11T16:25:39.338Z,7.69
2019-02-11T16:28:09.150Z,7.54
2019-02-11T16:30:38.909Z,7.68
2019-02-11T16:33:08.300Z,7.81
2019-02-11T16:35:37.708Z,7.64
2019-02-11T16:38:07.519Z,7.51
2019-02-11T16:40:36.932Z,7.72
2019-02-11T16:43:06.634Z,7.68
2019-02-11T16:45:36.199Z,7.57
2019-02-11T16:48:05.754Z,7.79
2019-02-11T16:50:38.148Z,7.83
2019-02-11T16:53:10.455Z,7.61
2019-02-11T16:55:40.324Z,7.30
2019-02-11T16:58:09.970Z,7.45
2019-02-11T17:00:39.393Z,7.41
2019-02-11T17:03:09.066Z,7.30
2019-02-11T17:05:38.826Z,7.22
2019-02-11T17:08:08.430Z,7.49
2019-02-11T17:10:38.192Z,7.44
2019-02-11T17:13:07.749Z,7.48
2019-02-11T17:15:37.721Z,7.43
2019-02-11T17:18:07.504Z,7.33
2019-02-11T17:20:37.011Z,7.29
2019-02-11T17:23:07.200Z,7.21
2019-02-11T17:25:36.915Z,7.22
2019-02-11T17:28:06.768Z,7.14
2019-02-11T17:30:36.361Z,7.21
2019-02-11T17:33:05.915Z,7.46
2019-02-11T17:35:35.350Z,7.34
2019-02-11T17:38:05.139Z,7.22
2019-02-11T17:40:34.655Z,7.10
2019-02-11T17:43:04.279Z,7.21
2019-02-11T17:45:34.151Z,7.06
2019-02-11T17:48:04.044Z,7.06
2019-02-11T17:50:33.522Z,7.01
2019-02-11T17:53:04.539Z,6.88
2019-02-11T17:55:34.227Z,6.93
2019-02-11T17:58:03.954Z,6.87
2019-02-11T18:00:38.362Z,6.77
2019-02-11T18:03:08.079Z,7.05
2019-02-11T18:05:37.889Z,7.14
2019-02-11T18:08:07.580Z,7.21
2019-02-11T18:10:37.429Z,7.05
2019-02-11T18:13:07.266Z,7.28
2019-02-11T18:15:37.068Z,7.02
2019-02-11T18:18:06.479Z,7.15
2019-02-11T18:20:36.253Z,6.99
2019-02-11T18:23:05.861Z,7.15
2019-02-11T18:25:36.365Z,7.18
2019-02-11T18:28:06.381Z,7.21
2019-02-11T18:30:36.127Z,7.10
2019-02-11T18:33:05.745Z,7.00
2019-02-11T18:35:35.653Z,7.10
2019-02-11T18:38:05.388Z,7.09
2019-02-11T18:40:35.054Z,6.92
2019-02-11T18:43:04.455Z,7.07
2019-02-11T18:45:34.138Z,7.04
2019-02-11T18:48:06.056Z,6.92
2019-02-11T18:50:35.924Z,7.01
2019-02-11T18:53:05.631Z,7.00
2019-02-11T18:55:35.924Z,7.00
2019-02-11T18:58:05.405Z,7.02
2019-02-11T19:00:35.087Z,7.16
2019-02-11T19:03:05.177Z,7.38
2019-02-11T19:05:34.832Z,7.33
2019-02-11T19:08:04.333Z,7.24
2019-02-11T19:10:34.108Z,7.20
2019-02-11T19:13:03.761Z,7.17
2019-02-11T19:15:33.483Z,7.18
2019-02-11T19:18:03.243Z,7.16
2019-02-11T19:20:32.677Z,7.45
2019-02-11T19:23:02.501Z,7.46
2019-02-11T19:25:34.511Z,7.54
2019-02-11T19:28:04.039Z,7.55
2019-02-11T19:30:33.807Z,7.41
2019-02-11T19:33:03.559Z,7.29
2019-02-11T19:35:34.422Z,7.12
2019-02-11T19:38:04.519Z,7.15
2019-02-11T19:40:36.712Z,7.24
2019-02-11T19:43:06.256Z,7.53
2019-02-11T19:45:38.194Z,7.45
2019-02-11T19:48:07.792Z,7.40
2019-02-11T19:50:37.342Z,7.66
2019-02-11T19:53:07.061Z,7.78
2019-02-11T19:55:36.734Z,7.58
2019-02-11T19:58:06.245Z,7.66
2019-02-11T20:00:35.726Z,7.64
2019-02-11T20:03:05.921Z,7.44
2019-02-11T20:05:35.682Z,7.35
2019-02-11T20:08:05.487Z,7.44
2019-02-11T20:10:35.221Z,7.60
2019-02-11T20:13:04.907Z,7.59
2019-02-11T20:15:34.650Z,7.68
2019-02-11T20:18:04.492Z,7.93
2019-02-11T20:20:34.070Z,7.76
2019-02-11T20:23:03.657Z,7.73
2019-02-11T20:25:33.400Z,7.63
2019-02-11T20:28:03.221Z,7.53
2019-02-11T20:30:33.084Z,7.18
2019-02-11T20:33:04.440Z,6.95
2019-02-11T20:35:33.673Z,6.92
2019-02-11T20:38:03.184Z,6.97
2019-02-11T20:40:32.871Z,6.90
2019-02-11T20:43:02.456Z,6.87
2019-02-11T20:45:31.939Z,6.93
2019-02-11T20:48:01.448Z,6.90
2019-02-11T20:50:31.150Z,6.96
2019-02-11T20:53:00.764Z,7.03
2019-02-11T20:55:30.386Z,6.93
2019-02-11T20:58:00.343Z,6.98
2019-02-11T21:00:30.229Z,7.04
2019-02-11T21:03:07.913Z,6.79
2019-02-11T21:05:31.475Z,6.87
2019-02-11T21:08:01.175Z,6.88
2019-02-11T21:10:31.198Z,6.81
2019-02-11T21:13:01.002Z,6.59
2019-02-11T21:15:30.731Z,6.61
2019-02-11T21:18:00.363Z,6.70
2019-02-11T21:20:32.388Z,6.85
2019-02-11T21:23:01.936Z,6.85
2019-02-11T21:25:31.435Z,6.74
2019-02-11T21:28:01.291Z,6.61
2019-02-11T21:30:30.950Z,6.48
2019-02-11T21:33:00.448Z,6.47
2019-02-11T21:35:30.256Z,6.50
2019-02-11T21:37:59.712Z,6.73
2019-02-11T21:40:29.501Z,6.74
2019-02-11T21:42:59.283Z,6.63
2019-02-11T21:45:29.055Z,6.51
2019-02-11T21:47:58.640Z,6.47
2019-02-11T21:50:28.350Z,6.55
2019-02-11T21:52:57.908Z,6.47
2019-02-11T21:55:27.643Z,6.75
2019-02-11T21:57:57.206Z,6.65
2019-02-11T22:00:26.734Z,6.46
2019-02-11T22:02:56.292Z,6.30
2019-02-11T22:05:25.911Z,6.41
2019-02-11T22:07:55.800Z,6.31
2019-02-11T22:10:25.647Z,6.42
2019-02-11T22:12:55.074Z,6.50
2019-02-11T22:15:24.752Z,6.49
2019-02-11T22:17:54.301Z,6.42
2019-02-11T22:20:24.177Z,6.44
2019-02-11T22:22:53.775Z,6.28
2019-02-11T22:25:23.183Z,6.23
2019-02-11T22:27:52.672Z,6.24
2019-02-11T22:30:22.303Z,6.29
2019-02-11T22:32:51.991Z,6.26
2019-02-11T22:35:21.396Z,6.32
2019-02-11T22:37:51.212Z,6.33
2019-02-11T22:40:20.617Z,6.25
2019-02-11T22:42:50.250Z,6.12
2019-02-11T22:45:21.195Z,6.28
2019-02-11T22:47:50.753Z,6.33
2019-02-11T22:50:20.168Z,6.31
2019-02-11T22:52:49.656Z,6.43
2019-02-11T22:55:19.392Z,6.42
2019-02-11T22:57:49.070Z,6.37
2019-02-11T23:00:44.284Z,6.42
2019-02-11T23:03:14.318Z,6.51
2019-02-11T23:05:44.253Z,6.58
2019-02-11T23:08:13.809Z,6.66
2019-02-11T23:10:43.933Z,6.71
2019-02-11T23:13:13.877Z,6.85
2019-02-11T23:15:43.644Z,6.59
2019-02-11T23:18:13.063Z,6.20
2019-02-11T23:20:42.732Z,5.93
2019-02-11T23:23:12.285Z,5.83
2019-02-11T23:25:41.921Z,5.72
2019-02-11T23:28:11.532Z,5.60
2019-02-11T23:30:41.312Z,5.54
2019-02-11T23:33:10.917Z,5.59
2019-02-11T23:35:40.640Z,5.61
2019-02-11T23:38:10.279Z,5.69
2019-02-11T23:40:40.146Z,5.79
2019-02-11T23:43:09.539Z,5.72
2019-02-11T23:45:39.426Z,5.72
2019-02-11T23:48:09.019Z,5.77
2019-02-11T23:50:38.718Z,5.81
2019-02-11T23:53:08.125Z,5.78
2019-02-11T23:55:37.695Z,5.76
2019-02-11T23:58:07.412Z,5.79
